Time;durP1;ratioP1;P1;durP2;ratioP2;P2;SDS_P1;SDS_P2;PMS_P1;PMS_P2;Temp;Humidity;BMP_temperature;BMP_pressure;BME280_temperature;BME280_humidity;BME280_pressure;Samples;Min_cycle;Max_cycle;Signal;HPM_P1;HPM_P2
2022/07/09 00:03:29;;;;;;;8.70;4.97;;;15.80;99.90;;;;;;5041465;28;21115;-72
2022/07/09 00:06:40;;;;;;;7.80;4.60;;;15.80;99.90;;;;;;5043353;28;20848;-72
2022/07/09 00:09:45;;;;;;;5.93;3.60;;;15.80;99.90;;;;;;5040914;28;20597;-73
2022/07/09 00:13:15;;;;;;;8.43;4.73;;;15.80;99.90;;;;;;5047227;28;20477;-72
2022/07/09 00:16:08;;;;;;;5.57;4.50;;;15.80;99.90;;;;;;5044282;28;21045;-73
2022/07/09 00:19:04;;;;;;;7.90;4.10;;;15.80;99.90;;;;;;5041913;28;20479;-74
2022/07/09 00:22:12;;;;;;;7.43;4.90;;;15.80;99.90;;;;;;5044910;28;20455;-72
2022/07/09 00:25:08;;;;;;;5.57;4.30;;;15.80;99.90;;;;;;5046272;28;20486;-72
2022/07/09 00:28:26;;;;;;;8.60;4.73;;;15.80;99.90;;;;;;5042613;28;20838;-73
2022/07/09 00:31:47;;;;;;;10.77;5.10;;;15.80;99.90;;;;;;5045684;28;20942;-74
2022/07/09 00:34:51;;;;;;;8.27;4.63;;;15.70;99.90;;;;;;5043537;28;20462;-75
2022/07/09 00:37:53;;;;;;;7.50;5.00;;;15.70;99.90;;;;;;5043488;28;20454;-74
2022/07/09 00:41:01;;;;;;;6.90;4.37;;;15.70;99.90;;;;;;5046759;28;20611;-72
2022/07/09 00:44:03;;;;;;;10.00;5.17;;;15.70;99.90;;;;;;5044835;28;20486;-72
2022/07/09 00:47:25;;;;;;;;;;;;;;;;;;;;;
2022/07/09 00:50:37;;;;;;;7.50;4.07;;;15.70;99.90;;;;;;5042335;28;20474;-73
2022/07/09 00:53:39;;;;;;;8.93;5.63;;;15.70;99.90;;;;;;5044025;28;20496;-72
2022/07/09 00:56:53;;;;;;;9.17;5.00;;;15.70;99.90;;;;;;5045913;28;20494;-72
2022/07/09 01:00:18;;;;;;;7.40;4.70;;;15.70;99.90;;;;;;5044427;28;20478;-73
2022/07/09 01:03:34;;;;;;;8.40;4.27;;;15.70;99.90;;;;;;5038771;28;20443;-73
2022/07/09 01:06:30;;;;;;;6.10;4.23;;;15.70;99.90;;;;;;5042882;28;20636;-74
2022/07/09 01:09:42;;;;;;;;;;;;;;;;;;;;;
2022/07/09 01:12:59;;;;;;;7.20;5.40;;;15.70;99.90;;;;;;5045190;28;20485;-73
2022/07/09 01:16:08;;;;;;;5.50;4.97;;;15.80;99.90;;;;;;5045036;28;21057;-72
2022/07/09 01:19:21;;;;;;;7.50;4.17;;;15.70;99.90;;;;;;5041682;28;20485;-74
2022/07/09 01:22:41;;;;;;;6.67;4.90;;;15.70;99.90;;;;;;5040887;28;21131;-73
2022/07/09 01:25:50;;;;;;;7.50;4.60;;;15.70;99.90;;;;;;5044935;28;20540;-74
2022/07/09 01:28:54;;;;;;;11.00;5.47;;;15.70;99.90;;;;;;5045237;28;20548;-73
2022/07/09 01:31:59;;;;;;;8.07;5.27;;;15.70;99.90;;;;;;5045457;28;20950;-72
2022/07/09 01:38:09;;;;;;;9.60;5.10;;;15.70;99.90;;;;;;4978243;28;20481;-72
2022/07/09 01:41:01;;;;;;;5.97;4.90;;;15.70;99.90;;;;;;5047471;28;20835;-73
2022/07/09 01:43:52;;;;;;;8.50;5.57;;;15.70;99.90;;;;;;5046131;28;20692;-73
2022/07/09 01:46:48;;;;;;;9.03;5.10;;;15.70;99.90;;;;;;5047500;28;21112;-73
2022/07/09 01:49:58;;;;;;;7.97;5.47;;;15.70;99.90;;;;;;5044696;28;20485;-73
2022/07/09 01:53:01;;;;;;;7.67;4.70;;;15.70;99.90;;;;;;5037814;28;20462;-72
2022/07/09 01:55:57;;;;;;;8.60;4.80;;;15.60;99.90;;;;;;5032696;28;20513;-72
2022/07/09 01:58:59;;;;;;;8.03;4.97;;;15.70;99.90;;;;;;5043504;28;20889;-73
2022/07/09 02:02:01;;;;;;;8.60;5.07;;;15.70;99.90;;;;;;5041498;28;21010;-72
2022/07/09 02:05:08;;;;;;;8.20;5.20;;;15.60;99.90;;;;;;5044998;28;20470;-73
2022/07/09 02:08:04;;;;;;;6.37;4.93;;;15.60;99.90;;;;;;5042858;28;20466;-71
2022/07/09 02:11:04;;;;;;;6.90;4.67;;;15.60;99.90;;;;;;5041586;28;20487;-71
2022/07/09 02:14:11;;;;;;;8.60;5.10;;;15.60;99.90;;;;;;5044238;28;20466;-72
2022/07/09 02:17:22;;;;;;;6.57;5.07;;;15.60;99.90;;;;;;5040153;28;20454;-72
2022/07/09 02:20:30;;;;;;;9.57;5.00;;;15.60;99.90;;;;;;5043511;28;21010;-74
2022/07/09 02:23:29;;;;;;;6.83;4.87;;;15.60;99.90;;;;;;5045319;28;20977;-72
2022/07/09 02:26:35;;;;;;;7.47;5.13;;;15.60;99.90;;;;;;5045476;28;20478;-73
2022/07/09 02:29:43;;;;;;;9.47;5.20;;;15.60;99.90;;;;;;5044720;28;20466;-72
2022/07/09 02:32:52;;;;;;;6.07;4.63;;;15.60;99.90;;;;;;5042656;28;20465;-72
2022/07/09 02:36:16;;;;;;;7.83;5.10;;;15.60;99.90;;;;;;5046907;28;20475;-72
2022/07/09 02:39:20;;;;;;;7.70;4.90;;;15.60;99.90;;;;;;5045315;28;20897;-71
2022/07/09 02:42:30;;;;;;;10.43;5.00;;;15.60;99.90;;;;;;5040926;28;20660;-73
2022/07/09 02:45:31;;;;;;;8.53;4.63;;;15.70;99.90;;;;;;5050389;28;20482;-71
2022/07/09 02:48:33;;;;;;;5.13;4.63;;;15.70;99.90;;;;;;5048118;28;20848;-72
2022/07/09 02:52:06;;;;;;;8.40;4.87;;;15.70;99.90;;;;;;5028156;28;20450;-72
2022/07/09 02:55:02;;;;;;;7.00;4.57;;;15.70;99.90;;;;;;5049832;28;20810;-73
2022/07/09 02:58:18;;;;;;;8.00;4.87;;;15.60;99.90;;;;;;5048808;28;20455;-74
2022/07/09 03:01:50;;;;;;;6.30;4.20;;;15.60;99.90;;;;;;5048740;28;20488;-72
2022/07/09 03:04:52;;;;;;;6.67;4.97;;;15.60;99.90;;;;;;5044311;28;20493;-72
2022/07/09 03:07:48;;;;;;;10.20;4.97;;;15.70;99.90;;;;;;5048973;28;20535;-72
2022/07/09 03:10:50;;;;;;;5.17;4.37;;;15.60;99.90;;;;;;5049078;28;20482;-73
2022/07/09 03:14:22;;;;;;;8.93;5.03;;;15.60;99.90;;;;;;5048247;28;20454;-72
2022/07/09 03:18:00;;;;;;;7.07;4.47;;;15.60;99.90;;;;;;5051039;28;20465;-72
2022/07/09 03:20:53;;;;;;;6.23;4.43;;;15.60;99.90;;;;;;5045363;28;20474;-72
2022/07/09 03:23:57;;;;;;;6.53;4.80;;;15.60;99.90;;;;;;5050564;28;20459;-73
2022/07/09 03:27:10;;;;;;;6.93;4.80;;;15.60;99.90;;;;;;5050937;28;21244;-71
2022/07/09 03:30:14;;;;;;;7.63;4.90;;;15.70;99.90;;;;;;5048603;28;20497;-73
2022/07/09 03:33:22;;;;;;;6.73;5.20;;;15.60;99.90;;;;;;5049126;28;20973;-72
2022/07/09 03:36:32;;;;;;;4.63;4.23;;;15.70;99.90;;;;;;5044031;28;20475;-72
2022/07/09 03:39:49;;;;;;;;;;;;;;;;;;;;;
2022/07/09 03:43:10;;;;;;;5.40;4.47;;;15.60;99.90;;;;;;5041767;28;20447;-73
2022/07/09 03:46:29;;;;;;;8.13;5.13;;;15.70;99.90;;;;;;5049327;28;20559;-72
2022/07/09 03:49:33;;;;;;;8.50;4.33;;;15.70;99.90;;;;;;5046510;28;20482;-73
2022/07/09 03:52:28;;;;;;;7.40;4.93;;;15.60;99.90;;;;;;5046057;28;20549;-72
2022/07/09 03:55:44;;;;;;;7.87;4.40;;;15.60;99.90;;;;;;5050118;28;20497;-72
2022/07/09 03:59:12;;;;;;;7.20;4.70;;;15.60;99.90;;;;;;5043896;28;20523;-73
2022/07/09 04:02:11;;;;;;;5.77;4.43;;;15.70;99.90;;;;;;5048274;28;20459;-75
2022/07/09 04:05:15;;;;;;;5.70;4.43;;;15.70;99.90;;;;;;5039415;28;20573;-74
2022/07/09 04:08:30;;;;;;;7.27;4.93;;;15.70;99.90;;;;;;5046122;28;20477;-73
2022/07/09 04:11:37;;;;;;;8.23;5.17;;;15.70;99.90;;;;;;5047613;28;20465;-71
2022/07/09 04:15:00;;;;;;;7.27;4.73;;;15.70;99.90;;;;;;5047921;28;21033;-72
2022/07/09 04:18:21;;;;;;;7.03;4.40;;;15.70;99.90;;;;;;5047024;28;20966;-71
2022/07/09 04:21:16;;;;;;;5.37;4.33;;;15.70;99.90;;;;;;5047096;28;20542;-72
2022/07/09 04:24:28;;;;;;;8.57;5.07;;;15.80;99.90;;;;;;5048817;28;20486;-72
2022/07/09 04:27:25;;;;;;;5.80;4.40;;;15.80;99.90;;;;;;5046049;28;21108;-73
2022/07/09 04:30:19;;;;;;;6.57;4.80;;;15.70;99.90;;;;;;5048193;28;20478;-72
2022/07/09 04:33:32;;;;;;;9.37;4.97;;;15.80;99.90;;;;;;5046076;28;20488;-73
2022/07/09 04:36:54;;;;;;;11.13;4.80;;;15.80;99.90;;;;;;5041589;28;20628;-73
2022/07/09 04:39:54;;;;;;;5.87;4.53;;;15.80;99.90;;;;;;5042030;28;20478;-72
2022/07/09 04:46:08;;;;;;;6.40;4.10;;;15.80;99.90;;;;;;5048750;28;20490;-73
2022/07/09 04:48:58;;;;;;;4.60;4.20;;;15.80;99.90;;;;;;5043281;28;21138;-73
2022/07/09 04:52:10;;;;;;;5.30;4.03;;;15.80;99.90;;;;;;5048257;28;20538;-73
2022/07/09 04:55:10;;;;;;;7.60;5.10;;;15.80;99.90;;;;;;5048017;28;20473;-73
2022/07/09 04:58:17;;;;;;;5.33;4.60;;;15.70;99.90;;;;;;5045473;28;20459;-72
2022/07/09 05:01:20;;;;;;;5.30;4.43;;;15.80;99.90;;;;;;5047298;28;20459;-73
2022/07/09 05:04:25;;;;;;;8.90;4.53;;;15.80;99.90;;;;;;5048474;28;20446;-73
2022/07/09 05:10:55;;;;;;;6.57;4.70;;;15.90;99.90;;;;;;5026942;28;20478;-73
2022/07/09 05:14:07;;;;;;;5.47;4.40;;;15.80;99.90;;;;;;5047291;28;20458;-72
2022/07/09 05:16:57;;;;;;;6.40;4.73;;;15.90;99.90;;;;;;5047898;28;20535;-73
2022/07/09 05:19:56;;;;;;;4.90;4.10;;;15.90;99.90;;;;;;5041599;28;21022;-72
2022/07/09 05:23:07;;;;;;;6.77;4.30;;;15.90;99.90;;;;;;5045778;28;20946;-72
2022/07/09 05:26:32;;;;;;;;;;;;;;;;;;;;;
2022/07/09 05:29:43;;;;;;;5.40;4.00;;;15.90;99.90;;;;;;5045074;28;20478;-72
2022/07/09 05:32:40;;;;;;;5.10;3.90;;;16.00;99.90;;;;;;5038134;28;20458;-72
2022/07/09 05:35:55;;;;;;;5.10;4.30;;;16.00;99.90;;;;;;5042926;28;20466;-74
2022/07/09 05:39:07;;;;;;;8.20;4.20;;;16.00;99.90;;;;;;5043053;28;20485;-74
2022/07/09 05:42:16;;;;;;;6.23;4.43;;;16.00;99.90;;;;;;5046399;28;20459;-72
2022/07/09 05:45:37;;;;;;;5.83;4.67;;;16.10;99.90;;;;;;5045984;28;20482;-72
2022/07/09 05:48:36;;;;;;;4.67;3.90;;;16.10;99.90;;;;;;5036227;28;20849;-74
2022/07/09 05:51:41;;;;;;;8.33;4.20;;;16.10;99.90;;;;;;5041001;28;22402;-72
2022/07/09 05:55:05;;;;;;;7.13;4.00;;;16.10;99.90;;;;;;5045096;28;20873;-72
2022/07/09 05:58:35;;;;;;;5.30;4.30;;;16.20;99.90;;;;;;5034288;28;20469;-72
2022/07/09 06:01:39;;;;;;;6.60;4.57;;;16.10;99.90;;;;;;5036423;28;20810;-76
2022/07/09 06:04:30;;;;;;;5.60;4.60;;;16.10;99.90;;;;;;5021034;28;20487;-72
2022/07/09 06:07:23;;;;;;;6.63;4.63;;;16.20;99.90;;;;;;5027393;28;20537;-72
2022/07/09 06:10:30;;;;;;;7.83;4.83;;;16.20;99.90;;;;;;5032161;28;20847;-72
2022/07/09 06:13:23;;;;;;;6.73;4.77;;;16.20;99.90;;;;;;5037502;28;20946;-72
2022/07/09 06:16:15;;;;;;;6.40;4.70;;;16.20;99.90;;;;;;5040528;28;20458;-72
2022/07/09 06:19:12;;;;;;;7.33;4.30;;;16.20;99.90;;;;;;5034817;28;20486;-72
2022/07/09 06:22:04;;;;;;;6.63;5.13;;;16.30;99.90;;;;;;5031598;28;20447;-73
2022/07/09 06:24:58;;;;;;;6.60;4.93;;;16.30;99.90;;;;;;5034295;28;20487;-73
2022/07/09 06:27:54;;;;;;;5.87;5.27;;;16.30;99.90;;;;;;5040328;28;20485;-72
2022/07/09 06:30:45;;;;;;;6.50;5.17;;;16.30;99.90;;;;;;5039435;28;20626;-74
2022/07/09 06:33:36;;;;;;;5.30;4.90;;;16.40;99.90;;;;;;5039441;28;20508;-72
2022/07/09 06:36:27;;;;;;;5.53;5.07;;;16.50;99.90;;;;;;5032946;28;20486;-72
2022/07/09 06:42:22;;;;;;;5.40;4.90;;;16.60;99.90;;;;;;5045479;28;20490;-74
2022/07/09 06:45:19;;;;;;;5.57;4.80;;;16.60;99.90;;;;;;5041974;28;20482;-73
2022/07/09 06:48:07;;;;;;;5.63;4.97;;;16.70;99.90;;;;;;5038863;28;20573;-72
2022/07/09 06:50:55;;;;;;;8.17;5.17;;;16.80;99.90;;;;;;5044102;28;20509;-73
2022/07/09 06:53:46;;;;;;;5.73;5.23;;;16.80;99.90;;;;;;5046621;28;20461;-73
2022/07/09 06:56:40;;;;;;;5.40;4.90;;;16.90;99.90;;;;;;5039348;28;20565;-72
2022/07/09 06:59:45;;;;;;;7.20;4.90;;;16.90;99.90;;;;;;5044482;28;20585;-73
2022/07/09 07:02:37;;;;;;;4.83;4.00;;;17.00;99.90;;;;;;5041006;28;20787;-73
2022/07/09 07:05:28;;;;;;;4.77;4.37;;;17.10;99.90;;;;;;5040950;28;20478;-74
2022/07/09 07:08:19;;;;;;;4.40;4.10;;;17.10;99.90;;;;;;5041508;28;20538;-77
2022/07/09 07:11:18;;;;;;;3.93;3.63;;;17.20;99.90;;;;;;5042051;28;20524;-74
2022/07/09 07:14:12;;;;;;;4.47;3.90;;;17.20;99.90;;;;;;5040351;28;20490;-72
2022/07/09 07:17:04;;;;;;;5.60;4.03;;;17.30;99.90;;;;;;5038856;28;21125;-73
2022/07/09 07:19:59;;;;;;;4.67;4.20;;;17.40;99.90;;;;;;5038708;28;20543;-73
2022/07/09 07:22:47;;;;;;;5.83;3.47;;;17.40;99.90;;;;;;5037902;28;20498;-71
2022/07/09 07:25:40;;;;;;;5.30;3.60;;;17.40;99.90;;;;;;5035707;28;20474;-71
2022/07/09 07:28:30;;;;;;;3.87;3.57;;;17.40;99.90;;;;;;5024126;28;20561;-72
2022/07/09 07:31:22;;;;;;;5.33;3.90;;;17.50;99.90;;;;;;5032170;28;20450;-76
2022/07/09 07:34:11;;;;;;;3.90;3.50;;;17.60;99.90;;;;;;5035604;28;20461;-73
2022/07/09 07:37:02;;;;;;;4.00;3.57;;;17.60;99.90;;;;;;5031706;28;20494;-72
2022/07/09 07:39:53;;;;;;;5.53;4.03;;;17.60;99.90;;;;;;5039365;28;21360;-72
2022/07/09 07:42:44;;;;;;;4.13;3.63;;;17.60;99.90;;;;;;5041888;28;20553;-72
2022/07/09 07:45:33;;;;;;;4.43;3.80;;;17.60;99.90;;;;;;5038730;28;20493;-74
2022/07/09 07:48:27;;;;;;;4.20;3.67;;;17.70;99.90;;;;;;5032821;28;20872;-74
2022/07/09 07:51:15;;;;;;;4.23;3.80;;;17.70;99.90;;;;;;5039393;28;20495;-74
2022/07/09 07:54:06;;;;;;;4.80;3.70;;;17.80;99.90;;;;;;5041953;28;20455;-72
2022/07/09 07:56:54;;;;;;;5.47;4.07;;;17.80;99.90;;;;;;5039448;28;20528;-75
2022/07/09 07:59:44;;;;;;;3.70;2.70;;;17.90;99.90;;;;;;5037722;28;20470;-73
2022/07/09 08:02:34;;;;;;;4.23;3.53;;;18.00;99.90;;;;;;5042214;28;20532;-73
2022/07/09 08:05:23;;;;;;;4.70;3.33;;;18.00;99.90;;;;;;5040402;28;20596;-71
2022/07/09 08:08:14;;;;;;;4.93;3.50;;;18.00;99.90;;;;;;5031924;28;20515;-70
2022/07/09 08:11:04;;;;;;;6.03;3.50;;;18.10;99.90;;;;;;5030581;28;20463;-72
2022/07/09 08:13:52;;;;;;;3.60;2.97;;;18.20;99.90;;;;;;5032847;28;20443;-72
2022/07/09 08:16:43;;;;;;;3.37;3.07;;;18.30;99.90;;;;;;5031109;28;20471;-72
2022/07/09 08:19:31;;;;;;;3.43;3.13;;;18.30;99.90;;;;;;5041540;28;20571;-72
2022/07/09 08:22:21;;;;;;;5.47;3.73;;;18.30;99.90;;;;;;5041388;28;20545;-71
2022/07/09 08:25:12;;;;;;;3.73;3.13;;;18.30;99.90;;;;;;5044320;28;20603;-71
2022/07/09 08:28:07;;;;;;;4.10;2.80;;;18.30;99.90;;;;;;5044392;28;21072;-71
2022/07/09 08:30:55;;;;;;;3.20;2.83;;;18.40;99.90;;;;;;5042760;28;20504;-71
2022/07/09 08:33:44;;;;;;;3.40;2.50;;;18.40;99.90;;;;;;5041868;28;20463;-71
2022/07/09 08:36:32;;;;;;;4.37;2.90;;;18.40;99.90;;;;;;5036453;28;20552;-71
2022/07/09 08:39:22;;;;;;;2.67;2.57;;;18.50;99.90;;;;;;5041661;28;20613;-71
2022/07/09 08:42:11;;;;;;;3.20;2.63;;;18.60;99.90;;;;;;5042275;28;20458;-71
2022/07/09 08:45:03;;;;;;;3.33;3.13;;;18.70;99.90;;;;;;5041254;28;20544;-71
2022/07/09 08:47:52;;;;;;;2.53;2.13;;;18.80;99.90;;;;;;5043040;28;20485;-71
2022/07/09 08:50:48;;;;;;;3.03;2.70;;;18.80;99.90;;;;;;5043406;28;20457;-70
2022/07/09 08:53:41;;;;;;;3.73;2.20;;;18.90;99.90;;;;;;5041710;28;20550;-71
2022/07/09 08:56:31;;;;;;;2.97;2.67;;;19.00;99.90;;;;;;5043744;28;20954;-71
2022/07/09 08:59:22;;;;;;;3.20;2.87;;;19.10;99.90;;;;;;5042114;28;21123;-74
2022/07/09 09:02:13;;;;;;;4.20;2.37;;;19.20;99.90;;;;;;5045460;28;20458;-70
2022/07/09 09:05:06;;;;;;;2.87;2.20;;;19.20;99.90;;;;;;5043510;28;20524;-71
2022/07/09 09:07:55;;;;;;;3.90;2.10;;;19.20;99.90;;;;;;5030977;28;20483;-72
2022/07/09 09:10:47;;;;;;;4.77;4.37;;;19.20;99.90;;;;;;5043990;28;20462;-71
2022/07/09 09:13:40;;;;;;;3.50;2.67;;;19.20;99.90;;;;;;5045130;28;20490;-72
2022/07/09 09:16:29;;;;;;;2.27;2.07;;;19.20;99.90;;;;;;5033732;28;20514;-73
2022/07/09 09:19:18;;;;;;;3.60;2.23;;;19.20;99.90;;;;;;5035110;28;20484;-72
2022/07/09 09:22:08;;;;;;;2.63;2.40;;;19.30;99.90;;;;;;5037285;28;21017;-71
2022/07/09 09:24:57;;;;;;;1.83;1.73;;;19.50;99.90;;;;;;5033601;28;20549;-72
2022/07/09 09:27:52;;;;;;;4.57;2.10;;;19.60;99.90;;;;;;5033870;28;20917;-71
2022/07/09 09:30:43;;;;;;;3.47;1.90;;;19.60;99.90;;;;;;5032474;28;20590;-72
2022/07/09 09:33:31;;;;;;;3.70;2.17;;;19.60;99.90;;;;;;5033819;28;20955;-72
2022/07/09 09:36:32;;;;;;;2.90;1.90;;;19.60;99.90;;;;;;5033113;28;20503;-71
2022/07/09 09:39:30;;;;;;;2.30;2.00;;;19.60;99.90;;;;;;5030614;28;20474;-73
2022/07/09 09:42:18;;;;;;;3.77;1.93;;;19.60;99.90;;;;;;5036404;28;20489;-72
2022/07/09 09:45:10;;;;;;;2.67;1.80;;;19.80;99.90;;;;;;5036039;28;21636;-71
2022/07/09 09:48:00;;;;;;;4.33;2.30;;;19.80;99.90;;;;;;5033120;28;20494;-72
2022/07/09 09:50:56;;;;;;;2.13;1.93;;;19.90;99.90;;;;;;5034814;28;20489;-74
2022/07/09 09:53:46;;;;;;;2.80;2.20;;;19.90;99.90;;;;;;5036634;28;20487;-71
2022/07/09 09:56:35;;;;;;;2.40;1.80;;;20.00;99.90;;;;;;5030782;28;22273;-71
2022/07/09 09:59:24;;;;;;;2.03;1.93;;;20.10;99.90;;;;;;5038892;28;20552;-70
2022/07/09 10:02:12;;;;;;;2.57;2.33;;;20.10;99.90;;;;;;5039097;28;20554;-69
2022/07/09 10:05:01;;;;;;;1.93;1.63;;;20.30;99.90;;;;;;5037772;28;20467;-69
2022/07/09 10:07:51;;;;;;;3.00;2.13;;;20.40;99.90;;;;;;5038067;28;20471;-69
2022/07/09 10:10:51;;;;;;;2.33;2.00;;;20.50;99.90;;;;;;5034821;28;20568;-69
2022/07/09 10:13:49;;;;;;;2.40;1.70;;;20.50;99.90;;;;;;5038073;28;20466;-68
2022/07/09 10:16:40;;;;;;;1.73;1.47;;;20.50;99.90;;;;;;5036220;28;20505;-69
2022/07/09 10:19:32;;;;;;;3.00;1.70;;;20.50;99.90;;;;;;5036138;28;20477;-69
2022/07/09 10:22:21;;;;;;;3.87;1.70;;;20.40;99.90;;;;;;5037804;28;20451;-69
2022/07/09 10:25:15;;;;;;;3.57;1.60;;;20.30;99.90;;;;;;5042475;28;20501;-70
2022/07/09 10:28:15;;;;;;;2.90;1.80;;;20.20;99.90;;;;;;5033624;28;21144;-71
2022/07/09 10:31:08;;;;;;;2.63;1.70;;;20.20;99.90;;;;;;5041491;28;20462;-71
2022/07/09 10:34:08;;;;;;;2.07;1.90;;;20.20;99.90;;;;;;5037130;28;20463;-69
2022/07/09 10:36:58;;;;;;;3.27;2.03;;;20.20;99.90;;;;;;5036012;28;20617;-70
2022/07/09 10:39:55;;;;;;;2.50;1.90;;;20.40;99.90;;;;;;5032540;28;20467;-69
2022/07/09 10:42:45;;;;;;;9.13;1.77;;;20.50;99.90;;;;;;5037179;28;20488;-71
2022/07/09 10:45:45;;;;;;;2.90;1.57;;;20.60;99.90;;;;;;5032843;28;20510;-69
2022/07/09 10:48:33;;;;;;;2.40;1.70;;;20.60;99.90;;;;;;5035286;28;20510;-69
2022/07/09 10:51:23;;;;;;;2.33;1.63;;;20.60;99.90;;;;;;5039135;28;20471;-70
2022/07/09 10:54:16;;;;;;;2.77;1.87;;;20.60;99.90;;;;;;5039672;28;20464;-69
2022/07/09 10:57:09;;;;;;;1.93;1.60;;;20.60;99.90;;;;;;5032803;28;20592;-70
2022/07/09 10:59:57;;;;;;;2.43;1.53;;;20.50;99.90;;;;;;5037897;28;20481;-70
2022/07/09 11:02:58;;;;;;;4.30;1.80;;;20.50;99.90;;;;;;5036658;28;20469;-70
2022/07/09 11:05:48;;;;;;;2.00;1.80;;;20.60;99.90;;;;;;5042324;28;20475;-69
2022/07/09 11:08:36;;;;;;;2.30;1.90;;;20.60;99.90;;;;;;5042236;28;20514;-71
2022/07/09 11:11:25;;;;;;;2.77;1.53;;;20.70;99.90;;;;;;5041021;28;20448;-69
2022/07/09 11:14:14;;;;;;;3.67;1.90;;;20.70;99.90;;;;;;5040662;28;21007;-72
2022/07/09 11:17:03;;;;;;;2.77;1.77;;;20.80;99.90;;;;;;5039625;28;20597;-72
2022/07/09 11:19:55;;;;;;;2.23;1.87;;;20.90;99.90;;;;;;5041889;28;21025;-73
2022/07/09 11:22:48;;;;;;;1.90;1.80;;;20.90;99.90;;;;;;5046037;28;20483;-71
2022/07/09 11:25:50;;;;;;;2.07;1.87;;;21.00;99.90;;;;;;5040963;28;20478;-72
2022/07/09 11:28:40;;;;;;;2.40;1.80;;;21.10;99.90;;;;;;5041383;28;20859;-71
2022/07/09 11:31:29;;;;;;;1.50;1.40;;;21.20;99.90;;;;;;5038084;28;20455;-71
2022/07/09 11:34:19;;;;;;;3.00;1.40;;;21.20;99.90;;;;;;5036334;28;20679;-71
2022/07/09 11:37:10;;;;;;;2.10;1.47;;;21.20;99.90;;;;;;5035127;28;20483;-71
2022/07/09 11:39:58;;;;;;;3.03;1.80;;;21.10;99.90;;;;;;5036308;28;20466;-70
2022/07/09 11:42:46;;;;;;;1.63;1.30;;;21.00;99.90;;;;;;5041946;28;20545;-71
2022/07/09 11:45:36;;;;;;;2.47;1.80;;;21.00;99.90;;;;;;5034885;28;20490;-70
2022/07/09 11:48:25;;;;;;;2.03;1.80;;;21.10;99.90;;;;;;5038254;28;20510;-71
2022/07/09 11:51:13;;;;;;;1.73;1.63;;;21.20;99.90;;;;;;5034432;28;20551;-70
2022/07/09 11:54:03;;;;;;;2.90;1.30;;;21.30;99.90;;;;;;5040463;28;20806;-71
2022/07/09 11:56:51;;;;;;;1.73;1.40;;;21.30;99.90;;;;;;5039716;28;20470;-71
2022/07/09 11:59:43;;;;;;;2.00;1.60;;;21.50;99.90;;;;;;5044710;28;20478;-71
2022/07/09 12:02:33;;;;;;;1.73;1.37;;;21.60;99.90;;;;;;5044591;28;20963;-70
2022/07/09 12:05:33;;;;;;;1.63;1.53;;;21.70;99.90;;;;;;5039198;28;20478;-70
2022/07/09 12:08:27;;;;;;;1.73;1.63;;;21.70;99.90;;;;;;5038993;28;20470;-69
2022/07/09 12:11:27;;;;;;;3.13;1.70;;;21.60;99.90;;;;;;5040204;28;20619;-70
2022/07/09 12:14:15;;;;;;;3.00;2.10;;;21.70;99.90;;;;;;5034214;28;20455;-70
2022/07/09 12:17:05;;;;;;;1.93;1.63;;;21.70;99.90;;;;;;5029285;28;20454;-70
2022/07/09 12:19:54;;;;;;;3.73;1.50;;;21.80;99.90;;;;;;5035599;28;20564;-68
2022/07/09 12:22:44;;;;;;;2.13;1.70;;;21.90;99.90;;;;;;5031170;28;20461;-74
2022/07/09 12:25:34;;;;;;;3.23;1.97;;;21.90;99.90;;;;;;5035024;28;20577;-69
2022/07/09 12:28:25;;;;;;;1.90;1.80;;;21.80;99.90;;;;;;5034025;28;21059;-71
2022/07/09 12:31:14;;;;;;;1.53;1.43;;;21.60;99.90;;;;;;5039156;28;20492;-70
2022/07/09 12:34:04;;;;;;;1.70;1.60;;;21.60;99.90;;;;;;5036528;28;20454;-70
2022/07/09 12:36:54;;;;;;;2.40;1.70;;;21.70;99.90;;;;;;5032636;28;20490;-70
2022/07/09 12:39:46;;;;;;;2.60;2.00;;;21.70;99.90;;;;;;5032233;28;21001;-69
2022/07/09 12:42:39;;;;;;;2.03;1.87;;;21.70;99.90;;;;;;5035294;28;20462;-69
2022/07/09 12:45:29;;;;;;;3.33;1.70;;;21.70;99.90;;;;;;5039211;28;20516;-69
2022/07/09 12:48:17;;;;;;;3.43;1.97;;;21.60;99.90;;;;;;5034441;28;20524;-70
2022/07/09 12:51:06;;;;;;;4.27;2.53;;;21.50;99.90;;;;;;5031838;28;20455;-69
2022/07/09 12:53:54;;;;;;;2.50;2.30;;;21.50;99.90;;;;;;5041406;28;20522;-69
2022/07/09 12:56:42;;;;;;;2.33;2.10;;;21.70;99.90;;;;;;5040865;28;20569;-69
2022/07/09 12:59:50;;;;;;;3.47;1.70;;;21.80;99.90;;;;;;5026850;28;20474;-70
2022/07/09 13:02:40;;;;;;;2.57;1.67;;;21.80;99.90;;;;;;5033243;28;20473;-72
2022/07/09 13:05:29;;;;;;;1.57;1.40;;;21.70;99.90;;;;;;5037508;28;20478;-70
2022/07/09 13:08:17;;;;;;;2.57;1.80;;;21.80;99.90;;;;;;5041969;28;20485;-70
2022/07/09 13:11:09;;;;;;;2.87;1.50;;;21.80;99.90;;;;;;5034827;28;20508;-69
2022/07/09 13:13:57;;;;;;;1.97;1.20;;;21.80;99.90;;;;;;5032386;28;20451;-70
2022/07/09 13:16:46;;;;;;;1.50;1.30;;;21.80;99.90;;;;;;5036936;28;20477;-70
2022/07/09 13:19:56;;;;;;;1.53;1.40;;;21.80;99.90;;;;;;5035962;28;20483;-70
2022/07/09 13:22:44;;;;;;;2.80;1.50;;;21.80;99.90;;;;;;5036132;28;20918;-70
2022/07/09 13:25:32;;;;;;;4.37;1.50;;;21.80;99.90;;;;;;5038617;28;20521;-69
2022/07/09 13:28:20;;;;;;;2.97;1.27;;;21.90;99.90;;;;;;5028708;28;20566;-69
2022/07/09 13:31:13;;;;;;;1.33;1.23;;;22.00;99.90;;;;;;5038458;28;20521;-71
2022/07/09 13:34:02;;;;;;;2.90;1.70;;;22.10;99.90;;;;;;5029187;28;21023;-70
2022/07/09 13:36:51;;;;;;;2.30;1.60;;;22.20;99.90;;;;;;5033994;28;20559;-71
2022/07/09 13:39:39;;;;;;;2.23;1.40;;;22.20;99.90;;;;;;5038644;28;20546;-73
2022/07/09 13:42:28;;;;;;;1.70;1.13;;;22.20;99.90;;;;;;5039611;28;20450;-71
2022/07/09 13:45:16;;;;;;;1.30;1.17;;;22.00;99.90;;;;;;5028916;28;20509;-71
2022/07/09 13:48:05;;;;;;;3.33;1.43;;;22.00;99.90;;;;;;5040370;28;20474;-71
2022/07/09 13:50:54;;;;;;;3.03;1.53;;;22.10;99.90;;;;;;5039007;28;20474;-71
2022/07/09 13:53:47;;;;;;;3.13;1.50;;;22.10;99.90;;;;;;5043136;28;20539;-71
2022/07/09 13:56:35;;;;;;;2.70;1.10;;;22.20;99.90;;;;;;5035854;28;20768;-71
2022/07/09 13:59:24;;;;;;;3.13;1.47;;;22.20;99.90;;;;;;5041515;28;20608;-70
2022/07/09 14:02:14;;;;;;;3.53;1.10;;;22.00;99.90;;;;;;5031050;28;20465;-70
2022/07/09 14:05:08;;;;;;;2.80;1.50;;;21.90;99.90;;;;;;5035418;28;20575;-71
2022/07/09 14:07:58;;;;;;;3.07;1.47;;;21.80;99.90;;;;;;5035491;28;20456;-70
2022/07/09 14:10:47;;;;;;;2.63;1.60;;;21.70;99.90;;;;;;5040321;28;20553;-71
2022/07/09 14:13:36;;;;;;;2.07;1.40;;;21.50;99.90;;;;;;5037313;28;20570;-71
2022/07/09 14:16:25;;;;;;;2.00;1.20;;;21.30;99.90;;;;;;5033205;28;20512;-71
2022/07/09 14:19:14;;;;;;;2.50;1.30;;;21.30;99.90;;;;;;5042898;28;20982;-70
2022/07/09 14:22:02;;;;;;;3.17;1.67;;;21.40;99.90;;;;;;5031512;28;20485;-70
2022/07/09 14:24:50;;;;;;;3.70;1.83;;;21.40;99.90;;;;;;5030265;28;20451;-70
2022/07/09 14:27:40;;;;;;;3.20;1.77;;;21.60;99.90;;;;;;5022249;28;20545;-70
2022/07/09 14:30:28;;;;;;;2.93;1.40;;;21.70;99.90;;;;;;5031595;28;20493;-72
2022/07/09 14:33:17;;;;;;;4.00;2.03;;;21.80;99.90;;;;;;5030535;28;20628;-72
2022/07/09 14:36:08;;;;;;;3.90;1.97;;;21.50;99.90;;;;;;5031075;28;20574;-73
2022/07/09 14:38:58;;;;;;;3.83;1.50;;;21.30;99.90;;;;;;5032687;28;20601;-71
2022/07/09 14:41:47;;;;;;;3.20;1.57;;;21.20;99.90;;;;;;5032520;28;20451;-73
2022/07/09 14:44:36;;;;;;;3.90;1.40;;;21.20;99.90;;;;;;5038244;28;20521;-70
2022/07/09 14:47:25;;;;;;;2.40;1.40;;;21.10;99.90;;;;;;5035374;28;20814;-73
2022/07/09 14:50:13;;;;;;;2.23;1.40;;;21.10;99.90;;;;;;5034556;28;20479;-70
2022/07/09 14:53:02;;;;;;;4.90;1.37;;;21.00;99.90;;;;;;5033825;28;20481;-72
2022/07/09 14:55:51;;;;;;;4.23;1.90;;;21.00;99.90;;;;;;5028689;28;20469;-70
2022/07/09 14:58:39;;;;;;;3.30;1.57;;;20.80;99.90;;;;;;5033569;28;20506;-71
2022/07/09 15:01:29;;;;;;;3.67;1.73;;;20.60;99.90;;;;;;5037300;28;20878;-71
2022/07/09 15:04:18;;;;;;;6.70;2.10;;;20.70;99.90;;;;;;5034949;28;20520;-69
2022/07/09 15:07:06;;;;;;;4.30;1.67;;;20.80;99.90;;;;;;5036393;28;20553;-69
2022/07/09 15:09:54;;;;;;;3.77;1.73;;;21.10;99.90;;;;;;5032873;28;20527;-68
2022/07/09 15:12:43;;;;;;;3.70;1.63;;;21.10;99.90;;;;;;5023723;28;21321;-69
2022/07/09 15:15:31;;;;;;;2.53;1.03;;;20.90;99.90;;;;;;5027514;28;21017;-69
2022/07/09 15:18:21;;;;;;;3.43;1.37;;;20.80;99.90;;;;;;5042930;28;20490;-69
2022/07/09 15:21:10;;;;;;;3.10;1.37;;;20.80;99.90;;;;;;5047395;28;20450;-69
2022/07/09 15:23:58;;;;;;;4.03;1.30;;;20.90;99.90;;;;;;5042195;28;20461;-70
2022/07/09 15:26:47;;;;;;;2.10;1.07;;;21.00;99.90;;;;;;5047519;28;20474;-69
2022/07/09 15:29:36;;;;;;;2.87;1.20;;;21.10;99.90;;;;;;5044303;28;20557;-69
2022/07/09 15:32:25;;;;;;;3.00;1.00;;;21.30;99.90;;;;;;5048563;28;20511;-70
2022/07/09 15:35:15;;;;;;;1.70;1.20;;;21.40;99.90;;;;;;5047931;28;20478;-69
2022/07/09 15:38:03;;;;;;;3.67;0.90;;;21.30;99.90;;;;;;5049538;28;20459;-69
2022/07/09 15:40:51;;;;;;;2.90;1.13;;;21.10;99.90;;;;;;5046363;28;20462;-69